createdAt,value
2022-10-05T00:01:33.730Z,7.60
2022-10-05T00:04:19.945Z,8.10
2022-10-05T00:06:57.067Z,7.40
2022-10-05T00:09:25.660Z,6.70
2022-10-05T00:11:53.722Z,7.00
2022-10-05T00:14:28.002Z,6.80
2022-10-05T00:16:58.252Z,7.20
2022-10-05T00:19:34.527Z,6.10
2022-10-05T00:22:16.464Z,4.60
2022-10-05T00:24:45.597Z,10.90
2022-10-05T00:27:19.292Z,5.40
2022-10-05T00:29:49.662Z,5.40
2022-10-05T00:32:18.267Z,6.00
2022-10-05T00:37:35.624Z,4.40
2022-10-05T00:40:14.511Z,6.20
2022-10-05T00:43:19.632Z,6.40
2022-10-05T00:46:25.030Z,4.80
2022-10-05T00:49:07.080Z,5.40
2022-10-05T00:51:41.305Z,4.60
2022-10-05T00:54:19.144Z,4.60
2022-10-05T00:57:08.904Z,4.40
2022-10-05T00:59:46.156Z,4.90
2022-10-05T01:02:46.281Z,5.30
2022-10-05T01:05:43.251Z,4.70
2022-10-05T01:08:52.331Z,5.90
2022-10-05T01:11:37.039Z,4.90
2022-10-05T01:14:34.339Z,6.20
2022-10-05T01:17:17.351Z,4.30
2022-10-05T01:20:15.964Z,4.80
2022-10-05T01:25:32.664Z,5.60
2022-10-05T01:28:06.762Z,4.30
2022-10-05T01:30:59.239Z,5.60
2022-10-05T01:33:33.765Z,6.60
2022-10-05T01:36:07.700Z,5.10
2022-10-05T01:38:55.119Z,3.50
2022-10-05T01:41:30.693Z,4.90
2022-10-05T01:44:35.979Z,4.70
2022-10-05T01:47:17.826Z,4.60
2022-10-05T01:50:02.993Z,3.80
2022-10-05T01:52:48.017Z,2.70
2022-10-05T01:55:39.065Z,4.20
2022-10-05T01:58:10.195Z,3.70
2022-10-05T02:01:07.201Z,2.40
2022-10-05T02:03:44.685Z,3.80
2022-10-05T02:06:22.528Z,3.30
2022-10-05T02:08:58.925Z,3.80
2022-10-05T02:11:27.118Z,3.10
2022-10-05T02:14:12.331Z,3.50
2022-10-05T02:16:51.215Z,5.70
2022-10-05T02:19:41.329Z,5.10
2022-10-05T02:22:20.288Z,4.80
2022-10-05T02:24:54.713Z,4.20
2022-10-05T02:27:29.720Z,4.10
2022-10-05T02:30:03.305Z,4.30
2022-10-05T02:32:41.307Z,2.80
2022-10-05T02:35:15.838Z,3.20
2022-10-05T02:37:57.624Z,4.60
2022-10-05T02:40:57.410Z,2.80
2022-10-05T02:43:39.110Z,3.00
2022-10-05T02:46:26.080Z,2.60
2022-10-05T02:49:13.832Z,3.30
2022-10-05T02:51:58.753Z,2.30
2022-10-05T02:54:57.162Z,2.50
2022-10-05T02:57:31.540Z,3.30
2022-10-05T03:00:07.511Z,2.80
2022-10-05T03:02:52.674Z,3.30
2022-10-05T03:05:36.056Z,3.30
2022-10-05T03:08:37.013Z,3.00
2022-10-05T03:11:32.209Z,4.60
2022-10-05T03:14:15.774Z,3.60
2022-10-05T03:17:07.038Z,3.40
2022-10-05T03:20:04.371Z,5.00
2022-10-05T03:22:42.005Z,2.10
2022-10-05T03:25:31.334Z,4.00
2022-10-05T03:28:33.344Z,4.70
2022-10-05T03:31:02.729Z,2.10
2022-10-05T03:33:40.937Z,2.70
2022-10-05T03:36:38.059Z,2.70
2022-10-05T03:39:34.633Z,3.10
2022-10-05T03:42:29.323Z,3.80
2022-10-05T03:44:58.201Z,4.70
2022-10-05T03:47:34.145Z,3.00
2022-10-05T03:50:12.163Z,3.00
2022-10-05T03:53:04.916Z,2.70
2022-10-05T03:55:55.728Z,2.30
2022-10-05T03:58:34.774Z,2.60
2022-10-05T04:01:10.753Z,2.10
2022-10-05T04:03:47.286Z,2.80
2022-10-05T04:06:33.654Z,2.90
2022-10-05T04:09:15.773Z,2.90
2022-10-05T04:11:55.359Z,3.00
2022-10-05T04:15:00.483Z,3.00
2022-10-05T04:17:37.959Z,2.90
2022-10-05T04:20:25.148Z,5.50
2022-10-05T04:23:01.621Z,7.90
2022-10-05T04:25:36.442Z,4.30
2022-10-05T04:28:21.629Z,3.90
2022-10-05T04:30:53.300Z,4.40
2022-10-05T04:33:22.351Z,6.50
2022-10-05T04:36:14.252Z,5.70
2022-10-05T04:39:15.473Z,5.50
2022-10-05T04:42:14.591Z,5.40
2022-10-05T04:44:46.089Z,4.50
2022-10-05T04:47:14.443Z,4.30
2022-10-05T04:52:20.316Z,4.00
2022-10-05T04:55:31.003Z,3.70
2022-10-05T04:58:41.400Z,3.60
2022-10-05T05:02:00.294Z,2.70
2022-10-05T05:05:03.832Z,4.00
2022-10-05T05:07:55.952Z,4.70
2022-10-05T05:11:03.255Z,5.80
2022-10-05T05:14:14.236Z,4.20
2022-10-05T05:16:44.830Z,3.70
2022-10-05T05:19:42.124Z,5.40
2022-10-05T05:22:44.938Z,9.30
2022-10-05T05:25:59.818Z,4.20
2022-10-05T05:28:51.816Z,6.10
2022-10-05T05:31:41.596Z,8.80
2022-10-05T05:34:30.420Z,3.80
2022-10-05T05:37:09.473Z,6.20
2022-10-05T05:40:07.994Z,3.60
2022-10-05T05:43:20.580Z,4.20
2022-10-05T05:45:56.451Z,5.10
2022-10-05T05:48:34.856Z,2.40
2022-10-05T05:51:12.955Z,2.80
2022-10-05T05:56:27.331Z,4.30
2022-10-05T05:59:44.864Z,2.70
2022-10-05T06:02:22.080Z,1.50
2022-10-05T06:05:30.685Z,1.80
2022-10-05T06:08:07.849Z,5.70
2022-10-05T06:10:47.415Z,7.20
2022-10-05T06:13:33.097Z,1.60
2022-10-05T06:16:07.182Z,2.40
2022-10-05T06:18:38.462Z,4.40
2022-10-05T06:21:24.660Z,2.60
2022-10-05T06:24:11.619Z,15.00
2022-10-05T06:26:39.853Z,7.60
2022-10-05T06:29:21.516Z,4.50
2022-10-05T06:32:16.746Z,3.90
2022-10-05T06:34:56.109Z,2.10
2022-10-05T06:38:02.293Z,4.70
2022-10-05T06:40:30.682Z,3.90
2022-10-05T06:43:01.801Z,2.30
2022-10-05T06:45:59.395Z,3.40
2022-10-05T06:49:14.813Z,2.80
2022-10-05T06:54:52.630Z,3.50
2022-10-05T06:57:33.580Z,4.40
2022-10-05T07:00:21.227Z,2.40
2022-10-05T07:03:02.901Z,3.20
2022-10-05T07:05:52.572Z,3.90
2022-10-05T07:09:02.111Z,4.00
2022-10-05T07:12:17.460Z,3.90
2022-10-05T07:14:52.163Z,3.80
2022-10-05T07:17:52.007Z,3.70
2022-10-05T07:20:43.555Z,4.10
2022-10-05T07:23:37.038Z,4.10
2022-10-05T07:26:40.819Z,3.50
2022-10-05T07:29:33.463Z,3.20
2022-10-05T07:32:25.707Z,3.40
2022-10-05T07:36:02.914Z,3.20
2022-10-05T07:39:59.750Z,4.10
2022-10-05T07:43:40.257Z,4.30
2022-10-05T07:46:21.466Z,1.90
2022-10-05T07:49:00.348Z,3.50
2022-10-05T07:51:45.434Z,3.30
2022-10-05T07:54:21.763Z,4.10
2022-10-05T07:57:00.326Z,3.30
2022-10-05T08:00:32.859Z,4.30
2022-10-05T08:03:52.414Z,4.50
2022-10-05T08:10:45.236Z,2.00
2022-10-05T08:13:28.751Z,3.20
2022-10-05T08:16:14.898Z,2.20
2022-10-05T08:19:02.011Z,1.20
2022-10-05T08:21:52.454Z,2.40
2022-10-05T08:24:26.218Z,2.60
2022-10-05T08:27:07.461Z,1.60
2022-10-05T08:29:42.316Z,1.50
2022-10-05T08:32:34.920Z,3.20
2022-10-05T08:35:21.412Z,1.90
2022-10-05T08:37:51.282Z,0.80
2022-10-05T08:40:27.134Z,2.20
2022-10-05T08:43:16.376Z,0.70
2022-10-05T08:46:04.143Z,1.70
2022-10-05T08:48:49.533Z,1.50
2022-10-05T08:51:49.703Z,1.20
2022-10-05T08:54:29.442Z,1.20
2022-10-05T08:57:41.321Z,4.70
2022-10-05T09:00:18.531Z,4.00
2022-10-05T09:03:23.886Z,1.30
2022-10-05T09:06:12.754Z,0.80
2022-10-05T09:09:06.492Z,2.00
2022-10-05T09:12:02.281Z,0.90
2022-10-05T09:15:24.271Z,2.30
2022-10-05T09:18:27.926Z,1.30
2022-10-05T09:21:06.172Z,1.20
2022-10-05T09:23:45.135Z,1.30
2022-10-05T09:26:41.135Z,1.40
2022-10-05T09:29:25.051Z,1.00
2022-10-05T09:32:22.113Z,1.60
2022-10-05T09:35:34.639Z,1.50
2022-10-05T09:38:31.761Z,1.50
2022-10-05T09:44:08.603Z,1.40
2022-10-05T09:46:52.817Z,1.10
2022-10-05T09:49:33.607Z,1.20
2022-10-05T09:52:47.057Z,0.60
2022-10-05T09:55:50.722Z,0.60
2022-10-05T09:58:35.670Z,0.90
2022-10-05T10:01:34.353Z,1.00
2022-10-05T10:04:22.444Z,1.00
2022-10-05T10:07:13.543Z,1.50
2022-10-05T10:10:06.704Z,2.00
2022-10-05T10:13:14.515Z,2.00
2022-10-05T10:16:13.484Z,1.00
2022-10-05T10:19:12.956Z,3.30
2022-10-05T10:22:13.431Z,2.50
2022-10-05T10:25:21.541Z,1.10
2022-10-05T10:28:20.209Z,1.60
2022-10-05T10:31:22.343Z,2.00
2022-10-05T10:34:08.767Z,1.40
2022-10-05T10:37:32.587Z,1.20
2022-10-05T10:40:33.705Z,2.00
2022-10-05T10:43:30.220Z,1.40
2022-10-05T10:46:16.524Z,1.00
2022-10-05T10:48:55.877Z,1.60
2022-10-05T10:52:05.488Z,1.00
2022-10-05T10:55:04.713Z,1.30
2022-10-05T10:57:42.662Z,1.30
2022-10-05T11:00:28.912Z,0.80
2022-10-05T11:03:12.120Z,1.50
2022-10-05T11:06:10.338Z,1.20
2022-10-05T11:09:00.055Z,0.80
2022-10-05T11:12:12.688Z,1.10
2022-10-05T11:15:32.904Z,0.90
2022-10-05T11:18:01.067Z,1.30
2022-10-05T11:21:00.099Z,1.00
2022-10-05T11:24:09.914Z,1.00
2022-10-05T11:26:40.716Z,1.00
2022-10-05T11:29:28.456Z,1.00
2022-10-05T11:32:28.071Z,1.20
2022-10-05T11:34:59.148Z,1.40
2022-10-05T11:38:03.957Z,0.70
2022-10-05T11:40:47.844Z,1.10
2022-10-05T11:43:25.500Z,1.30
2022-10-05T11:45:57.128Z,1.50
2022-10-05T11:49:07.278Z,0.70
2022-10-05T11:51:38.485Z,1.20
2022-10-05T11:54:06.672Z,0.70
2022-10-05T11:56:42.766Z,0.90
2022-10-05T11:59:27.894Z,1.10
2022-10-05T12:02:04.722Z,1.00
2022-10-05T12:04:38.667Z,2.90
2022-10-05T12:07:33.261Z,1.20
2022-10-05T12:10:23.742Z,0.80
2022-10-05T12:13:33.398Z,0.60
2022-10-05T12:16:10.727Z,0.70
2022-10-05T12:18:51.538Z,1.30
2022-10-05T12:21:45.446Z,2.50
2022-10-05T12:25:14.860Z,1.20
2022-10-05T12:27:50.924Z,0.70
2022-10-05T12:30:59.196Z,1.10
2022-10-05T12:33:39.187Z,1.10
2022-10-05T12:36:31.859Z,1.00
2022-10-05T12:39:41.951Z,1.60
2022-10-05T12:42:41.959Z,2.00
2022-10-05T12:45:31.599Z,3.40
2022-10-05T12:48:02.324Z,1.50
2022-10-05T12:50:43.232Z,1.90
2022-10-05T12:53:28.890Z,1.40
2022-10-05T12:56:07.952Z,1.00
2022-10-05T12:58:57.692Z,1.60
2022-10-05T13:02:09.174Z,1.10
2022-10-05T13:05:11.493Z,1.20
2022-10-05T13:08:00.761Z,1.20
2022-10-05T13:11:01.180Z,0.80
2022-10-05T13:13:49.423Z,1.40
2022-10-05T13:16:42.914Z,1.70
2022-10-05T13:19:25.384Z,0.90
2022-10-05T13:22:05.242Z,4.50
2022-10-05T13:25:00.111Z,1.00
2022-10-05T13:27:37.037Z,1.10
2022-10-05T13:30:25.615Z,3.20
2022-10-05T13:33:08.329Z,1.00
2022-10-05T13:35:36.407Z,1.00
2022-10-05T13:41:21.906Z,0.80
2022-10-05T13:43:52.677Z,0.70
2022-10-05T13:46:30.321Z,1.90
2022-10-05T13:49:16.285Z,1.60
2022-10-05T13:52:02.688Z,1.30
2022-10-05T13:54:57.398Z,1.60
2022-10-05T13:57:58.124Z,1.60
2022-10-05T14:00:27.484Z,1.60
2022-10-05T14:02:58.023Z,2.70
2022-10-05T14:05:29.923Z,1.70
2022-10-05T14:07:58.832Z,0.80
2022-10-05T14:10:39.493Z,1.70
2022-10-05T14:13:28.978Z,1.00
2022-10-05T14:16:04.764Z,2.80
2022-10-05T14:18:38.525Z,2.90
2022-10-05T14:21:13.177Z,1.70
2022-10-05T14:23:42.332Z,1.40
2022-10-05T14:26:36.166Z,1.20
2022-10-05T14:29:19.151Z,1.20
2022-10-05T14:32:15.289Z,2.80
2022-10-05T14:34:55.028Z,1.20
2022-10-05T14:37:26.311Z,2.10
2022-10-05T14:40:03.441Z,1.90
2022-10-05T14:42:47.071Z,1.30
2022-10-05T14:45:26.176Z,2.60
2022-10-05T14:48:10.044Z,2.20
2022-10-05T14:50:52.925Z,2.40
2022-10-05T14:53:26.236Z,1.60
2022-10-05T14:56:29.149Z,1.80
2022-10-05T14:59:01.288Z,2.00
2022-10-05T15:01:33.907Z,1.90
2022-10-05T15:04:43.638Z,2.00
2022-10-05T15:08:56.281Z,4.10
2022-10-05T15:16:22.431Z,3.80
2022-10-05T15:24:30.117Z,4.20
2022-10-05T15:28:43.623Z,13.90
2022-10-05T15:32:37.166Z,2.90
2022-10-05T15:41:43.184Z,1.70
2022-10-05T15:52:39.567Z,3.60
2022-10-05T16:02:58.031Z,2.90
2022-10-05T16:06:11.092Z,3.70
2022-10-05T16:12:21.998Z,2.00
2022-10-05T16:15:59.177Z,6.80
2022-10-05T16:19:30.103Z,2.10
2022-10-05T16:22:50.577Z,3.50
2022-10-05T16:25:36.871Z,3.50
2022-10-05T16:28:50.571Z,7.20
2022-10-05T16:31:55.796Z,6.70
2022-10-05T17:09:29.018Z,22.30
2022-10-05T17:12:14.046Z,20.60
2022-10-05T17:15:10.787Z,21.30
2022-10-05T17:18:03.580Z,21.00
2022-10-05T17:20:47.610Z,19.40
2022-10-05T17:23:56.788Z,20.70
2022-10-05T17:27:11.104Z,17.90
2022-10-05T17:29:55.894Z,17.00
2022-10-05T17:32:36.338Z,17.00
2022-10-05T17:35:58.984Z,20.70
2022-10-05T17:38:41.119Z,23.70
2022-10-05T17:41:30.390Z,23.10
2022-10-05T17:48:18.629Z,20.10
2022-10-05T17:51:10.467Z,19.50
2022-10-05T17:54:04.845Z,18.80
2022-10-05T17:57:18.969Z,27.50
2022-10-05T18:00:00.555Z,22.90
2022-10-05T18:02:43.084Z,26.20
2022-10-05T18:05:14.026Z,25.20
2022-10-05T18:07:55.203Z,28.20
2022-10-05T18:10:30.072Z,22.40
2022-10-05T18:13:04.330Z,22.90
2022-10-05T18:15:48.757Z,27.30
2022-10-05T18:18:54.821Z,22.40
2022-10-05T18:21:24.770Z,18.60
2022-10-05T18:23:53.218Z,19.80
2022-10-05T18:26:59.722Z,20.70
2022-10-05T18:30:02.733Z,21.30
2022-10-05T18:32:52.644Z,22.00
2022-10-05T18:35:39.715Z,24.60
2022-10-05T18:38:33.413Z,24.60
2022-10-05T18:41:22.840Z,22.50
2022-10-05T18:44:04.421Z,26.80
2022-10-05T18:46:54.625Z,22.40
2022-10-05T18:49:49.734Z,21.00
2022-10-05T18:52:37.288Z,27.80
2022-10-05T18:55:35.126Z,21.90
2022-10-05T18:59:02.555Z,21.30
2022-10-05T19:01:43.039Z,21.70
2022-10-05T19:13:22.852Z,19.10
2022-10-05T19:15:58.415Z,19.60
2022-10-05T19:18:44.897Z,23.80
2022-10-05T19:21:13.114Z,23.70
2022-10-05T19:24:16.458Z,29.50
2022-10-05T19:27:08.007Z,26.20
2022-10-05T19:30:02.361Z,26.90
2022-10-05T19:32:43.875Z,23.30
2022-10-05T19:35:12.318Z,23.90
2022-10-05T19:38:11.747Z,26.30
2022-10-05T19:41:02.742Z,22.20
2022-10-05T19:43:39.189Z,21.40
2022-10-05T19:46:17.679Z,21.90
2022-10-05T19:48:53.253Z,24.70
2022-10-05T19:51:29.768Z,20.20
2022-10-05T19:54:02.196Z,23.90
2022-10-05T19:56:37.238Z,23.80
2022-10-05T19:59:20.340Z,23.20
2022-10-05T20:01:52.271Z,20.40
2022-10-05T20:04:37.650Z,20.00
2022-10-05T20:07:06.800Z,23.40
2022-10-05T20:09:58.350Z,19.80
2022-10-05T20:12:51.294Z,22.50
2022-10-05T20:15:41.106Z,22.90
2022-10-05T20:19:02.258Z,21.50
2022-10-05T20:21:47.584Z,25.30
2022-10-05T20:24:23.842Z,23.20
2022-10-05T20:27:27.616Z,20.10
2022-10-05T20:29:55.779Z,24.70
2022-10-05T20:32:26.420Z,22.10
2022-10-05T20:34:59.299Z,19.90
2022-10-05T20:37:28.141Z,18.30
2022-10-05T20:42:25.645Z,18.90
2022-10-05T20:44:56.912Z,24.00
2022-10-05T20:47:26.497Z,21.20
2022-10-05T20:49:54.988Z,22.20
2022-10-05T20:54:59.025Z,19.80
2022-10-05T20:57:28.318Z,20.50
2022-10-05T20:59:56.583Z,19.10
2022-10-05T21:02:25.128Z,18.90
2022-10-05T21:07:25.932Z,19.20
2022-10-05T21:09:56.502Z,19.20
2022-10-05T21:12:25.996Z,18.00
2022-10-05T21:14:54.285Z,21.30
2022-10-05T21:17:22.363Z,20.00
2022-10-05T21:19:53.136Z,17.30
2022-10-05T21:22:21.977Z,16.30
2022-10-05T21:24:50.161Z,13.90
2022-10-05T21:27:18.736Z,13.40
2022-10-05T21:29:46.909Z,16.10
2022-10-05T21:32:15.797Z,13.20
2022-10-05T21:34:43.946Z,19.40
2022-10-05T21:37:12.112Z,13.80
2022-10-05T21:39:40.388Z,16.40
2022-10-05T21:42:08.646Z,19.10
2022-10-05T21:44:41.080Z,19.50
2022-10-05T21:47:12.603Z,19.20
2022-10-05T21:49:41.857Z,18.50
2022-10-05T21:52:18.182Z,18.30
2022-10-05T21:54:54.787Z,21.00
2022-10-05T21:57:25.967Z,21.60
2022-10-05T21:59:54.296Z,21.70
2022-10-05T22:02:33.289Z,19.30
2022-10-05T22:05:04.613Z,17.70
2022-10-05T22:07:38.601Z,22.20
2022-10-05T22:10:09.815Z,18.10
2022-10-05T22:12:46.555Z,16.20
2022-10-05T22:15:16.895Z,18.70
2022-10-05T22:17:47.955Z,19.80
2022-10-05T22:20:21.765Z,16.60
2022-10-05T22:22:54.141Z,15.40
2022-10-05T22:25:25.180Z,15.90
2022-10-05T22:28:05.183Z,15.80
2022-10-05T22:30:37.055Z,12.60
2022-10-05T22:33:09.703Z,13.40
2022-10-05T22:35:40.825Z,15.00
2022-10-05T22:38:11.629Z,14.00
2022-10-05T22:40:42.411Z,14.50
2022-10-05T22:43:13.782Z,13.50
2022-10-05T22:45:44.863Z,13.50
2022-10-05T22:48:16.215Z,15.90
2022-10-05T22:50:50.173Z,14.20
2022-10-05T22:53:36.479Z,14.80
2022-10-05T22:56:13.039Z,11.50
2022-10-05T22:58:44.709Z,14.70
2022-10-05T23:01:18.152Z,15.20
2022-10-05T23:03:49.066Z,13.30
2022-10-05T23:06:20.765Z,15.90
2022-10-05T23:08:52.751Z,14.10
2022-10-05T23:11:27.219Z,16.20
2022-10-05T23:14:00.049Z,13.90
2022-10-05T23:16:51.985Z,11.70
2022-10-05T23:19:23.935Z,12.60
2022-10-05T23:21:54.984Z,13.80
2022-10-05T23:24:25.974Z,14.60
2022-10-05T23:26:57.301Z,13.70
2022-10-05T23:29:28.899Z,13.70
2022-10-05T23:31:59.992Z,14.50
2022-10-05T23:34:31.177Z,12.90
2022-10-05T23:37:02.105Z,13.30
2022-10-05T23:39:32.910Z,11.20
2022-10-05T23:42:04.145Z,10.90
2022-10-05T23:44:35.546Z,10.60
2022-10-05T23:47:06.302Z,10.70
2022-10-05T23:49:37.605Z,13.10
2022-10-05T23:52:08.488Z,13.30
2022-10-05T23:54:39.665Z,10.60
2022-10-05T23:57:10.929Z,15.80
2022-10-05T23:59:39.353Z,10.90
